Troutdale, Oregon
Current Conditions -  °F | °C
As of 11:18 PM on Wednesday 17 Dec 2014 (Local Time) from KTTD Reporting Station
Overcast Overcast  
Wind Chill: 39°   Ceiling: 5000
Heat Index: 44°   Visibility: 10mi
Dew Point: 38°   Wind: 10mph
Humidity: 79%   Direction: 80°E
Pressure: 29.99"   Gusts: NA
Location:  45.54°N, 122.38°W
Report Text: KTTD 180718Z AUTO 08009KT 10SM SCT023 BKN050 OVC080 07/03 A2999 RMK AO2 T00670033
Loading
Personal Weather Stations






























Interactive Weather Map New forecast layout! Learn more

10-Day Weather Forecast

Advertisements
Track Severe Weather on mobile